sensor_id;sensor_type;location;lat;lon;timestamp;P1;durP1;ratioP1;P2;durP2;ratioP2
65275;SDS011;51875;49.994;14.052;2023-01-01T00:00:46;5.45;;;3.15;;
65275;SDS011;51875;49.994;14.052;2023-01-01T00:02:22;3.63;;;2.38;;
65275;SDS011;51875;49.994;14.052;2023-01-01T00:03:38;4.72;;;2.70;;
65275;SDS011;51875;49.994;14.052;2023-01-01T00:04:54;4.50;;;2.50;;
65275;SDS011;51875;49.994;14.052;2023-01-01T00:06:11;4.13;;;2.38;;
65275;SDS011;51875;49.994;14.052;2023-01-01T00:07:28;4.55;;;2.88;;
65275;SDS011;51875;49.994;14.052;2023-01-01T00:08:44;4.78;;;2.50;;
65275;SDS011;51875;49.994;14.052;2023-01-01T00:10:00;3.85;;;2.33;;
65275;SDS011;51875;49.994;14.052;2023-01-01T00:11:34;3.97;;;2.50;;
65275;SDS011;51875;49.994;14.052;2023-01-01T00:12:50;4.03;;;2.40;;
65275;SDS011;51875;49.994;14.052;2023-01-01T00:14:06;5.53;;;2.58;;
65275;SDS011;51875;49.994;14.052;2023-01-01T00:15:22;6.07;;;3.13;;
65275;SDS011;51875;49.994;14.052;2023-01-01T00:16:38;4.35;;;2.60;;
65275;SDS011;51875;49.994;14.052;2023-01-01T00:17:53;3.70;;;2.08;;
65275;SDS011;51875;49.994;14.052;2023-01-01T00:19:09;3.35;;;2.20;;
65275;SDS011;51875;49.994;14.052;2023-01-01T00:20:25;4.97;;;3.03;;
65275;SDS011;51875;49.994;14.052;2023-01-01T00:21:40;4.78;;;2.88;;
65275;SDS011;51875;49.994;14.052;2023-01-01T00:22:56;5.38;;;2.78;;
65275;SDS011;51875;49.994;14.052;2023-01-01T00:24:12;4.20;;;2.63;;
65275;SDS011;51875;49.994;14.052;2023-01-01T00:25:27;4.60;;;2.60;;
65275;SDS011;51875;49.994;14.052;2023-01-01T00:26:43;4.28;;;2.50;;
65275;SDS011;51875;49.994;14.052;2023-01-01T00:27:59;4.05;;;2.33;;
65275;SDS011;51875;49.994;14.052;2023-01-01T00:29:15;3.33;;;1.85;;
65275;SDS011;51875;49.994;14.052;2023-01-01T00:30:30;3.65;;;2.05;;
65275;SDS011;51875;49.994;14.052;2023-01-01T00:31:46;4.05;;;2.42;;
65275;SDS011;51875;49.994;14.052;2023-01-01T00:33:01;5.07;;;2.80;;
65275;SDS011;51875;49.994;14.052;2023-01-01T00:34:17;6.53;;;3.97;;
65275;SDS011;51875;49.994;14.052;2023-01-01T00:35:33;7.80;;;3.92;;
65275;SDS011;51875;49.994;14.052;2023-01-01T00:36:49;7.05;;;3.72;;
65275;SDS011;51875;49.994;14.052;2023-01-01T00:38:05;8.80;;;5.40;;
65275;SDS011;51875;49.994;14.052;2023-01-01T00:39:21;7.03;;;4.30;;
65275;SDS011;51875;49.994;14.052;2023-01-01T00:40:36;8.07;;;3.92;;
65275;SDS011;51875;49.994;14.052;2023-01-01T00:41:52;7.63;;;4.43;;
65275;SDS011;51875;49.994;14.052;2023-01-01T00:43:07;8.05;;;4.20;;
65275;SDS011;51875;49.994;14.052;2023-01-01T00:44:23;7.32;;;4.40;;
65275;SDS011;51875;49.994;14.052;2023-01-01T00:45:39;8.20;;;5.30;;
65275;SDS011;51875;49.994;14.052;2023-01-01T00:46:54;5.93;;;3.90;;
65275;SDS011;51875;49.994;14.052;2023-01-01T00:48:10;9.57;;;4.70;;
65275;SDS011;51875;49.994;14.052;2023-01-01T00:49:25;9.65;;;4.10;;
65275;SDS011;51875;49.994;14.052;2023-01-01T00:50:42;6.95;;;4.38;;
65275;SDS011;51875;49.994;14.052;2023-01-01T00:51:57;7.35;;;4.28;;
65275;SDS011;51875;49.994;14.052;2023-01-01T00:53:13;11.68;;;5.50;;
65275;SDS011;51875;49.994;14.052;2023-01-01T00:54:29;8.77;;;4.90;;
65275;SDS011;51875;49.994;14.052;2023-01-01T00:55:45;9.85;;;5.53;;
65275;SDS011;51875;49.994;14.052;2023-01-01T00:57:02;10.77;;;5.55;;
65275;SDS011;51875;49.994;14.052;2023-01-01T00:58:18;10.70;;;5.45;;
65275;SDS011;51875;49.994;14.052;2023-01-01T00:59:34;9.07;;;5.35;;
65275;SDS011;51875;49.994;14.052;2023-01-01T01:00:50;6.82;;;4.20;;
65275;SDS011;51875;49.994;14.052;2023-01-01T01:02:06;8.05;;;4.50;;
65275;SDS011;51875;49.994;14.052;2023-01-01T01:03:22;4.60;;;3.13;;
65275;SDS011;51875;49.994;14.052;2023-01-01T01:04:44;6.10;;;2.80;;
65275;SDS011;51875;49.994;14.052;2023-01-01T01:07:18;5.20;;;3.13;;
65275;SDS011;51875;49.994;14.052;2023-01-01T01:08:33;6.28;;;3.20;;
65275;SDS011;51875;49.994;14.052;2023-01-01T01:09:50;4.07;;;2.88;;
65275;SDS011;51875;49.994;14.052;2023-01-01T01:11:10;4.25;;;2.75;;
65275;SDS011;51875;49.994;14.052;2023-01-01T01:13:44;3.78;;;2.20;;
65275;SDS011;51875;49.994;14.052;2023-01-01T01:15:02;4.13;;;2.25;;
65275;SDS011;51875;49.994;14.052;2023-01-01T01:16:21;4.25;;;2.50;;
65275;SDS011;51875;49.994;14.052;2023-01-01T01:17:44;6.18;;;3.90;;
65275;SDS011;51875;49.994;14.052;2023-01-01T01:19:00;4.93;;;3.47;;
65275;SDS011;51875;49.994;14.052;2023-01-01T01:20:17;3.60;;;2.60;;
65275;SDS011;51875;49.994;14.052;2023-01-01T01:21:33;5.20;;;2.85;;
65275;SDS011;51875;49.994;14.052;2023-01-01T01:22:49;4.82;;;3.55;;
65275;SDS011;51875;49.994;14.052;2023-01-01T01:24:05;2.45;;;1.88;;
65275;SDS011;51875;49.994;14.052;2023-01-01T01:25:21;3.85;;;2.20;;
65275;SDS011;51875;49.994;14.052;2023-01-01T01:26:36;5.43;;;2.92;;
65275;SDS011;51875;49.994;14.052;2023-01-01T01:27:52;3.22;;;2.13;;
65275;SDS011;51875;49.994;14.052;2023-01-01T01:29:08;3.78;;;2.05;;
65275;SDS011;51875;49.994;14.052;2023-01-01T01:30:24;4.25;;;2.30;;
65275;SDS011;51875;49.994;14.052;2023-01-01T01:31:39;3.78;;;2.22;;
65275;SDS011;51875;49.994;14.052;2023-01-01T01:32:55;4.28;;;2.30;;
65275;SDS011;51875;49.994;14.052;2023-01-01T01:34:10;3.72;;;2.00;;
65275;SDS011;51875;49.994;14.052;2023-01-01T01:35:26;5.47;;;3.47;;
65275;SDS011;51875;49.994;14.052;2023-01-01T01:36:43;4.70;;;2.85;;
65275;SDS011;51875;49.994;14.052;2023-01-01T01:37:59;2.80;;;2.20;;
65275;SDS011;51875;49.994;14.052;2023-01-01T01:39:15;4.30;;;2.78;;
65275;SDS011;51875;49.994;14.052;2023-01-01T01:40:31;3.00;;;2.08;;
65275;SDS011;51875;49.994;14.052;2023-01-01T01:41:47;4.88;;;2.50;;
65275;SDS011;51875;49.994;14.052;2023-01-01T01:43:03;3.20;;;2.20;;
65275;SDS011;51875;49.994;14.052;2023-01-01T01:46:04;2.88;;;2.10;;
65275;SDS011;51875;49.994;14.052;2023-01-01T01:49:14;5.57;;;2.33;;
65275;SDS011;51875;49.994;14.052;2023-01-01T01:50:43;5.35;;;2.10;;
65275;SDS011;51875;49.994;14.052;2023-01-01T01:52:02;3.33;;;2.00;;
65275;SDS011;51875;49.994;14.052;2023-01-01T01:53:19;5.15;;;2.65;;
65275;SDS011;51875;49.994;14.052;2023-01-01T01:54:42;4.95;;;2.22;;
65275;SDS011;51875;49.994;14.052;2023-01-01T01:55:59;3.83;;;2.40;;
65275;SDS011;51875;49.994;14.052;2023-01-01T01:57:17;4.22;;;2.78;;
65275;SDS011;51875;49.994;14.052;2023-01-01T01:58:33;4.40;;;2.58;;
65275;SDS011;51875;49.994;14.052;2023-01-01T01:59:49;4.82;;;2.75;;
65275;SDS011;51875;49.994;14.052;2023-01-01T02:01:11;4.22;;;2.30;;
65275;SDS011;51875;49.994;14.052;2023-01-01T02:02:37;3.90;;;2.75;;
65275;SDS011;51875;49.994;14.052;2023-01-01T02:04:02;7.72;;;2.40;;
65275;SDS011;51875;49.994;14.052;2023-01-01T02:05:18;2.60;;;1.88;;
65275;SDS011;51875;49.994;14.052;2023-01-01T02:06:35;3.17;;;2.00;;
65275;SDS011;51875;49.994;14.052;2023-01-01T02:07:52;2.65;;;1.98;;
65275;SDS011;51875;49.994;14.052;2023-01-01T02:09:09;6.32;;;3.00;;
65275;SDS011;51875;49.994;14.052;2023-01-01T02:10:26;3.58;;;2.17;;
65275;SDS011;51875;49.994;14.052;2023-01-01T02:11:42;5.50;;;2.78;;
65275;SDS011;51875;49.994;14.052;2023-01-01T02:12:58;4.40;;;2.40;;
65275;SDS011;51875;49.994;14.052;2023-01-01T02:14:13;4.15;;;2.17;;
65275;SDS011;51875;49.994;14.052;2023-01-01T02:15:30;3.78;;;2.45;;
65275;SDS011;51875;49.994;14.052;2023-01-01T02:16:55;5.07;;;2.33;;
65275;SDS011;51875;49.994;14.052;2023-01-01T02:18:15;4.57;;;2.22;;
65275;SDS011;51875;49.994;14.052;2023-01-01T02:21:19;3.47;;;1.63;;
65275;SDS011;51875;49.994;14.052;2023-01-01T02:22:45;2.80;;;1.85;;
65275;SDS011;51875;49.994;14.052;2023-01-01T02:24:11;4.55;;;2.28;;
65275;SDS011;51875;49.994;14.052;2023-01-01T02:27:03;3.67;;;1.95;;
65275;SDS011;51875;49.994;14.052;2023-01-01T02:30:07;2.80;;;1.90;;
65275;SDS011;51875;49.994;14.052;2023-01-01T02:31:29;2.85;;;1.85;;
65275;SDS011;51875;49.994;14.052;2023-01-01T02:32:51;4.88;;;2.17;;
65275;SDS011;51875;49.994;14.052;2023-01-01T02:34:11;4.38;;;2.03;;
65275;SDS011;51875;49.994;14.052;2023-01-01T02:35:31;5.30;;;2.40;;
65275;SDS011;51875;49.994;14.052;2023-01-01T02:36:52;3.17;;;2.00;;
65275;SDS011;51875;49.994;14.052;2023-01-01T02:38:15;3.50;;;2.10;;
65275;SDS011;51875;49.994;14.052;2023-01-01T02:39:38;2.80;;;1.70;;
65275;SDS011;51875;49.994;14.052;2023-01-01T02:41:04;4.18;;;2.20;;
65275;SDS011;51875;49.994;14.052;2023-01-01T02:42:25;2.83;;;1.70;;
65275;SDS011;51875;49.994;14.052;2023-01-01T02:43:43;3.92;;;1.77;;
65275;SDS011;51875;49.994;14.052;2023-01-01T02:45:00;3.35;;;1.73;;
65275;SDS011;51875;49.994;14.052;2023-01-01T02:46:16;3.03;;;1.90;;
65275;SDS011;51875;49.994;14.052;2023-01-01T02:47:32;3.25;;;1.63;;
65275;SDS011;51875;49.994;14.052;2023-01-01T02:48:48;2.33;;;1.60;;
65275;SDS011;51875;49.994;14.052;2023-01-01T02:50:10;3.03;;;1.40;;
65275;SDS011;51875;49.994;14.052;2023-01-01T02:53:25;2.33;;;1.60;;
65275;SDS011;51875;49.994;14.052;2023-01-01T02:54:52;3.03;;;1.90;;
65275;SDS011;51875;49.994;14.052;2023-01-01T02:56:47;2.55;;;1.70;;
65275;SDS011;51875;49.994;14.052;2023-01-01T02:58:18;4.07;;;2.60;;
65275;SDS011;51875;49.994;14.052;2023-01-01T03:00:18;3.95;;;2.10;;
65275;SDS011;51875;49.994;14.052;2023-01-01T03:01:47;4.65;;;2.58;;
65275;SDS011;51875;49.994;14.052;2023-01-01T03:05:14;4.28;;;2.10;;
65275;SDS011;51875;49.994;14.052;2023-01-01T03:08:12;3.83;;;1.92;;
65275;SDS011;51875;49.994;14.052;2023-01-01T03:11:10;2.75;;;1.75;;
65275;SDS011;51875;49.994;14.052;2023-01-01T03:12:53;3.80;;;1.88;;
65275;SDS011;51875;49.994;14.052;2023-01-01T03:17:26;1.90;;;1.52;;
65275;SDS011;51875;49.994;14.052;2023-01-01T03:18:52;2.97;;;1.80;;
65275;SDS011;51875;49.994;14.052;2023-01-01T03:20:26;3.28;;;2.10;;
65275;SDS011;51875;49.994;14.052;2023-01-01T03:21:50;2.15;;;1.60;;
65275;SDS011;51875;49.994;14.052;2023-01-01T03:23:12;3.13;;;1.90;;
65275;SDS011;51875;49.994;14.052;2023-01-01T03:24:34;2.13;;;1.80;;
65275;SDS011;51875;49.994;14.052;2023-01-01T03:25:54;2.35;;;1.70;;
65275;SDS011;51875;49.994;14.052;2023-01-01T03:27:15;4.57;;;1.85;;
65275;SDS011;51875;49.994;14.052;2023-01-01T03:28:43;4.68;;;1.58;;
65275;SDS011;51875;49.994;14.052;2023-01-01T03:30:12;2.40;;;1.60;;
65275;SDS011;51875;49.994;14.052;2023-01-01T03:31:30;3.75;;;2.00;;
65275;SDS011;51875;49.994;14.052;2023-01-01T03:32:54;2.67;;;1.73;;
65275;SDS011;51875;49.994;14.052;2023-01-01T03:35:48;3.78;;;1.80;;
65275;SDS011;51875;49.994;14.052;2023-01-01T03:37:17;3.75;;;1.67;;
65275;SDS011;51875;49.994;14.052;2023-01-01T03:38:39;2.83;;;1.70;;
65275;SDS011;51875;49.994;14.052;2023-01-01T03:39:57;3.80;;;1.85;;
65275;SDS011;51875;49.994;14.052;2023-01-01T03:41:14;4.95;;;1.88;;
65275;SDS011;51875;49.994;14.052;2023-01-01T03:42:38;4.35;;;2.10;;
65275;SDS011;51875;49.994;14.052;2023-01-01T03:45:36;4.60;;;2.40;;
65275;SDS011;51875;49.994;14.052;2023-01-01T03:46:56;3.70;;;2.10;;
65275;SDS011;51875;49.994;14.052;2023-01-01T03:48:13;4.95;;;2.40;;
65275;SDS011;51875;49.994;14.052;2023-01-01T03:49:28;5.82;;;2.90;;
65275;SDS011;51875;49.994;14.052;2023-01-01T03:50:48;4.30;;;2.45;;
65275;SDS011;51875;49.994;14.052;2023-01-01T03:53:38;5.03;;;2.85;;
65275;SDS011;51875;49.994;14.052;2023-01-01T03:55:05;5.97;;;3.17;;
65275;SDS011;51875;49.994;14.052;2023-01-01T03:58:15;5.63;;;2.47;;
65275;SDS011;51875;49.994;14.052;2023-01-01T04:01:17;4.47;;;2.65;;
65275;SDS011;51875;49.994;14.052;2023-01-01T04:02:42;4.65;;;2.70;;
65275;SDS011;51875;49.994;14.052;2023-01-01T04:04:04;4.18;;;2.40;;
65275;SDS011;51875;49.994;14.052;2023-01-01T04:05:22;5.30;;;2.67;;
65275;SDS011;51875;49.994;14.052;2023-01-01T04:06:38;5.05;;;2.67;;
65275;SDS011;51875;49.994;14.052;2023-01-01T04:07:54;4.38;;;2.63;;
65275;SDS011;51875;49.994;14.052;2023-01-01T04:09:11;4.93;;;2.85;;
65275;SDS011;51875;49.994;14.052;2023-01-01T04:10:30;4.07;;;2.50;;
65275;SDS011;51875;49.994;14.052;2023-01-01T04:11:48;4.78;;;2.67;;
65275;SDS011;51875;49.994;14.052;2023-01-01T04:13:18;5.60;;;2.85;;
65275;SDS011;51875;49.994;14.052;2023-01-01T04:14:35;3.38;;;2.45;;
65275;SDS011;51875;49.994;14.052;2023-01-01T04:15:53;4.15;;;2.72;;
65275;SDS011;51875;49.994;14.052;2023-01-01T04:17:09;5.38;;;2.47;;
65275;SDS011;51875;49.994;14.052;2023-01-01T04:18:26;5.05;;;2.40;;
65275;SDS011;51875;49.994;14.052;2023-01-01T04:19:42;5.03;;;2.42;;
65275;SDS011;51875;49.994;14.052;2023-01-01T04:20:58;3.17;;;2.15;;
65275;SDS011;51875;49.994;14.052;2023-01-01T04:22:13;4.85;;;2.40;;
65275;SDS011;51875;49.994;14.052;2023-01-01T04:23:29;5.53;;;2.50;;
65275;SDS011;51875;49.994;14.052;2023-01-01T04:24:44;3.75;;;2.35;;
65275;SDS011;51875;49.994;14.052;2023-01-01T04:26:00;4.40;;;2.17;;
65275;SDS011;51875;49.994;14.052;2023-01-01T04:27:15;4.75;;;2.33;;
65275;SDS011;51875;49.994;14.052;2023-01-01T04:28:31;4.18;;;2.00;;
65275;SDS011;51875;49.994;14.052;2023-01-01T04:29:47;4.97;;;2.15;;
65275;SDS011;51875;49.994;14.052;2023-01-01T04:31:02;4.90;;;2.30;;
65275;SDS011;51875;49.994;14.052;2023-01-01T04:32:18;4.13;;;2.20;;
65275;SDS011;51875;49.994;14.052;2023-01-01T04:33:34;4.90;;;2.28;;
65275;SDS011;51875;49.994;14.052;2023-01-01T04:34:49;4.15;;;2.42;;
65275;SDS011;51875;49.994;14.052;2023-01-01T04:36:06;3.20;;;1.98;;
65275;SDS011;51875;49.994;14.052;2023-01-01T04:37:23;3.92;;;2.35;;
65275;SDS011;51875;49.994;14.052;2023-01-01T04:38:39;5.70;;;2.00;;
65275;SDS011;51875;49.994;14.052;2023-01-01T04:39:54;2.58;;;1.80;;
65275;SDS011;51875;49.994;14.052;2023-01-01T04:41:10;2.80;;;1.80;;
65275;SDS011;51875;49.994;14.052;2023-01-01T04:42:25;3.40;;;2.08;;
65275;SDS011;51875;49.994;14.052;2023-01-01T04:43:45;3.28;;;2.05;;
65275;SDS011;51875;49.994;14.052;2023-01-01T04:45:04;5.43;;;1.95;;
65275;SDS011;51875;49.994;14.052;2023-01-01T04:46:20;4.78;;;2.17;;
65275;SDS011;51875;49.994;14.052;2023-01-01T04:47:36;2.65;;;1.88;;
65275;SDS011;51875;49.994;14.052;2023-01-01T04:48:53;2.50;;;1.70;;
65275;SDS011;51875;49.994;14.052;2023-01-01T04:50:08;2.85;;;2.00;;
65275;SDS011;51875;49.994;14.052;2023-01-01T04:51:24;2.72;;;1.83;;
65275;SDS011;51875;49.994;14.052;2023-01-01T04:52:40;2.78;;;2.00;;
65275;SDS011;51875;49.994;14.052;2023-01-01T04:53:57;3.38;;;1.77;;
65275;SDS011;51875;49.994;14.052;2023-01-01T04:55:13;2.80;;;1.90;;
65275;SDS011;51875;49.994;14.052;2023-01-01T04:56:29;3.05;;;1.95;;
65275;SDS011;51875;49.994;14.052;2023-01-01T04:57:44;3.30;;;1.92;;
65275;SDS011;51875;49.994;14.052;2023-01-01T04:59:00;2.85;;;1.55;;
65275;SDS011;51875;49.994;14.052;2023-01-01T05:00:16;2.50;;;1.73;;
65275;SDS011;51875;49.994;14.052;2023-01-01T05:01:31;3.75;;;1.83;;
65275;SDS011;51875;49.994;14.052;2023-01-01T05:02:47;3.10;;;1.80;;
65275;SDS011;51875;49.994;14.052;2023-01-01T05:04:03;2.90;;;1.90;;
65275;SDS011;51875;49.994;14.052;2023-01-01T05:05:18;2.63;;;1.60;;
65275;SDS011;51875;49.994;14.052;2023-01-01T05:06:34;2.83;;;1.70;;
65275;SDS011;51875;49.994;14.052;2023-01-01T05:07:51;3.47;;;1.70;;
65275;SDS011;51875;49.994;14.052;2023-01-01T05:09:07;3.35;;;1.70;;
65275;SDS011;51875;49.994;14.052;2023-01-01T05:10:24;4.57;;;1.80;;
65275;SDS011;51875;49.994;14.052;2023-01-01T05:11:40;4.15;;;1.77;;
65275;SDS011;51875;49.994;14.052;2023-01-01T05:12:55;3.00;;;1.83;;
65275;SDS011;51875;49.994;14.052;2023-01-01T05:14:11;2.97;;;1.52;;
65275;SDS011;51875;49.994;14.052;2023-01-01T05:15:26;2.72;;;1.80;;
65275;SDS011;51875;49.994;14.052;2023-01-01T05:16:42;2.90;;;1.70;;
65275;SDS011;51875;49.994;14.052;2023-01-01T05:17:58;3.33;;;1.63;;
65275;SDS011;51875;49.994;14.052;2023-01-01T05:19:13;2.15;;;1.40;;
65275;SDS011;51875;49.994;14.052;2023-01-01T05:20:29;2.58;;;1.50;;
65275;SDS011;51875;49.994;14.052;2023-01-01T05:21:45;3.35;;;1.52;;
65275;SDS011;51875;49.994;14.052;2023-01-01T05:23:00;2.70;;;1.55;;
65275;SDS011;51875;49.994;14.052;2023-01-01T05:24:16;2.85;;;1.83;;
65275;SDS011;51875;49.994;14.052;2023-01-01T05:25:31;2.80;;;1.75;;
65275;SDS011;51875;49.994;14.052;2023-01-01T05:26:47;3.08;;;1.85;;
65275;SDS011;51875;49.994;14.052;2023-01-01T05:28:03;3.70;;;1.67;;
65275;SDS011;51875;49.994;14.052;2023-01-01T05:29:18;2.38;;;1.60;;
65275;SDS011;51875;49.994;14.052;2023-01-01T05:30:39;3.28;;;1.90;;
65275;SDS011;51875;49.994;14.052;2023-01-01T05:31:55;3.10;;;2.00;;
65275;SDS011;51875;49.994;14.052;2023-01-01T05:33:10;3.17;;;2.60;;
65275;SDS011;51875;49.994;14.052;2023-01-01T05:34:27;5.03;;;2.22;;
65275;SDS011;51875;49.994;14.052;2023-01-01T05:35:42;3.40;;;2.13;;
65275;SDS011;51875;49.994;14.052;2023-01-01T05:36:58;3.47;;;2.30;;
65275;SDS011;51875;49.994;14.052;2023-01-01T05:38:13;3.40;;;2.10;;
65275;SDS011;51875;49.994;14.052;2023-01-01T05:39:29;3.60;;;1.98;;
65275;SDS011;51875;49.994;14.052;2023-01-01T05:40:45;3.25;;;1.48;;
65275;SDS011;51875;49.994;14.052;2023-01-01T05:42:00;3.50;;;1.80;;
65275;SDS011;51875;49.994;14.052;2023-01-01T05:43:16;3.17;;;1.90;;
65275;SDS011;51875;49.994;14.052;2023-01-01T05:44:32;2.85;;;1.90;;
65275;SDS011;51875;49.994;14.052;2023-01-01T05:45:47;3.05;;;1.80;;
65275;SDS011;51875;49.994;14.052;2023-01-01T05:47:03;2.63;;;1.50;;
65275;SDS011;51875;49.994;14.052;2023-01-01T05:48:19;3.10;;;1.80;;
65275;SDS011;51875;49.994;14.052;2023-01-01T05:49:35;2.42;;;1.65;;
65275;SDS011;51875;49.994;14.052;2023-01-01T05:50:50;2.83;;;1.73;;
65275;SDS011;51875;49.994;14.052;2023-01-01T05:52:06;3.92;;;1.73;;
65275;SDS011;51875;49.994;14.052;2023-01-01T05:53:21;3.45;;;1.98;;
65275;SDS011;51875;49.994;14.052;2023-01-01T05:54:37;4.50;;;2.17;;
65275;SDS011;51875;49.994;14.052;2023-01-01T05:55:53;3.50;;;1.65;;
65275;SDS011;51875;49.994;14.052;2023-01-01T05:57:08;4.22;;;2.08;;
65275;SDS011;51875;49.994;14.052;2023-01-01T05:58:24;3.65;;;1.63;;
65275;SDS011;51875;49.994;14.052;2023-01-01T05:59:41;3.08;;;1.85;;
65275;SDS011;51875;49.994;14.052;2023-01-01T06:00:56;3.85;;;1.60;;
65275;SDS011;51875;49.994;14.052;2023-01-01T06:02:19;3.67;;;1.85;;
65275;SDS011;51875;49.994;14.052;2023-01-01T06:03:35;3.92;;;1.85;;
65275;SDS011;51875;49.994;14.052;2023-01-01T06:04:51;3.55;;;2.00;;
65275;SDS011;51875;49.994;14.052;2023-01-01T06:06:07;2.03;;;1.40;;
65275;SDS011;51875;49.994;14.052;2023-01-01T06:07:24;5.03;;;1.70;;
65275;SDS011;51875;49.994;14.052;2023-01-01T06:08:40;3.80;;;1.60;;
65275;SDS011;51875;49.994;14.052;2023-01-01T06:09:56;4.30;;;1.77;;
65275;SDS011;51875;49.994;14.052;2023-01-01T06:11:11;4.28;;;2.00;;
65275;SDS011;51875;49.994;14.052;2023-01-01T06:12:27;3.08;;;1.88;;
65275;SDS011;51875;49.994;14.052;2023-01-01T06:13:42;2.78;;;1.48;;
65275;SDS011;51875;49.994;14.052;2023-01-01T06:14:58;4.00;;;1.88;;
65275;SDS011;51875;49.994;14.052;2023-01-01T06:16:14;3.38;;;2.05;;
65275;SDS011;51875;49.994;14.052;2023-01-01T06:17:30;3.00;;;1.77;;
65275;SDS011;51875;49.994;14.052;2023-01-01T06:18:47;4.60;;;2.17;;
65275;SDS011;51875;49.994;14.052;2023-01-01T06:20:03;4.57;;;2.03;;
65275;SDS011;51875;49.994;14.052;2023-01-01T06:21:20;5.82;;;2.33;;
65275;SDS011;51875;49.994;14.052;2023-01-01T06:22:37;3.75;;;2.10;;
65275;SDS011;51875;49.994;14.052;2023-01-01T06:23:53;4.38;;;2.22;;
65275;SDS011;51875;49.994;14.052;2023-01-01T06:25:11;3.25;;;2.20;;
65275;SDS011;51875;49.994;14.052;2023-01-01T06:26:30;4.63;;;2.30;;
65275;SDS011;51875;49.994;14.052;2023-01-01T06:27:47;4.55;;;2.65;;
65275;SDS011;51875;49.994;14.052;2023-01-01T06:29:02;3.38;;;2.13;;
65275;SDS011;51875;49.994;14.052;2023-01-01T06:30:18;4.80;;;2.10;;
65275;SDS011;51875;49.994;14.052;2023-01-01T06:31:34;3.63;;;2.00;;
65275;SDS011;51875;49.994;14.052;2023-01-01T06:32:49;3.90;;;1.85;;
65275;SDS011;51875;49.994;14.052;2023-01-01T06:34:05;2.42;;;1.75;;
65275;SDS011;51875;49.994;14.052;2023-01-01T06:35:21;3.10;;;1.80;;
65275;SDS011;51875;49.994;14.052;2023-01-01T06:36:36;3.47;;;1.77;;
65275;SDS011;51875;49.994;14.052;2023-01-01T06:37:52;2.85;;;1.85;;
65275;SDS011;51875;49.994;14.052;2023-01-01T06:39:08;2.65;;;1.40;;
65275;SDS011;51875;49.994;14.052;2023-01-01T06:40:23;3.10;;;1.85;;
65275;SDS011;51875;49.994;14.052;2023-01-01T06:41:39;3.28;;;1.98;;
65275;SDS011;51875;49.994;14.052;2023-01-01T06:42:55;4.00;;;1.70;;
65275;SDS011;51875;49.994;14.052;2023-01-01T06:44:10;4.25;;;2.15;;
65275;SDS011;51875;49.994;14.052;2023-01-01T06:45:26;3.05;;;1.95;;
65275;SDS011;51875;49.994;14.052;2023-01-01T06:46:41;4.15;;;2.15;;
65275;SDS011;51875;49.994;14.052;2023-01-01T06:47:57;7.72;;;3.28;;
65275;SDS011;51875;49.994;14.052;2023-01-01T06:49:13;6.53;;;3.10;;
65275;SDS011;51875;49.994;14.052;2023-01-01T06:50:28;5.85;;;3.05;;
65275;SDS011;51875;49.994;14.052;2023-01-01T06:51:44;6.15;;;3.00;;
65275;SDS011;51875;49.994;14.052;2023-01-01T06:52:59;6.45;;;2.95;;
65275;SDS011;51875;49.994;14.052;2023-01-01T06:54:15;6.88;;;3.60;;
65275;SDS011;51875;49.994;14.052;2023-01-01T06:55:31;8.35;;;3.47;;
65275;SDS011;51875;49.994;14.052;2023-01-01T06:56:46;10.13;;;4.38;;
65275;SDS011;51875;49.994;14.052;2023-01-01T06:58:02;6.68;;;3.42;;
65275;SDS011;51875;49.994;14.052;2023-01-01T06:59:18;7.10;;;3.15;;
65275;SDS011;51875;49.994;14.052;2023-01-01T07:00:33;9.88;;;4.00;;
65275;SDS011;51875;49.994;14.052;2023-01-01T07:01:50;7.30;;;3.40;;
65275;SDS011;51875;49.994;14.052;2023-01-01T07:03:05;7.05;;;3.95;;
65275;SDS011;51875;49.994;14.052;2023-01-01T07:04:23;7.03;;;3.63;;
65275;SDS011;51875;49.994;14.052;2023-01-01T07:05:39;9.00;;;3.38;;
65275;SDS011;51875;49.994;14.052;2023-01-01T07:06:55;7.47;;;3.45;;
65275;SDS011;51875;49.994;14.052;2023-01-01T07:08:10;6.70;;;3.40;;
65275;SDS011;51875;49.994;14.052;2023-01-01T07:09:26;5.30;;;3.30;;
65275;SDS011;51875;49.994;14.052;2023-01-01T07:10:41;5.13;;;3.15;;
65275;SDS011;51875;49.994;14.052;2023-01-01T07:11:57;9.82;;;3.15;;
65275;SDS011;51875;49.994;14.052;2023-01-01T07:13:12;6.55;;;3.10;;
65275;SDS011;51875;49.994;14.052;2023-01-01T07:14:28;6.10;;;3.47;;
65275;SDS011;51875;49.994;14.052;2023-01-01T07:15:44;5.78;;;3.30;;
65275;SDS011;51875;49.994;14.052;2023-01-01T07:16:59;6.63;;;3.15;;
65275;SDS011;51875;49.994;14.052;2023-01-01T07:18:15;6.10;;;3.20;;
65275;SDS011;51875;49.994;14.052;2023-01-01T07:19:30;5.50;;;2.72;;
65275;SDS011;51875;49.994;14.052;2023-01-01T07:20:56;8.93;;;3.40;;
65275;SDS011;51875;49.994;14.052;2023-01-01T07:22:13;8.68;;;3.30;;
65275;SDS011;51875;49.994;14.052;2023-01-01T07:23:30;5.32;;;2.70;;
65275;SDS011;51875;49.994;14.052;2023-01-01T07:24:48;4.68;;;2.78;;
65275;SDS011;51875;49.994;14.052;2023-01-01T07:26:04;6.20;;;2.47;;
65275;SDS011;51875;49.994;14.052;2023-01-01T07:27:19;5.22;;;2.63;;
65275;SDS011;51875;49.994;14.052;2023-01-01T07:28:35;4.68;;;2.90;;
65275;SDS011;51875;49.994;14.052;2023-01-01T07:29:50;6.35;;;3.35;;
65275;SDS011;51875;49.994;14.052;2023-01-01T07:31:06;5.25;;;2.85;;
65275;SDS011;51875;49.994;14.052;2023-01-01T07:32:21;6.85;;;3.25;;
65275;SDS011;51875;49.994;14.052;2023-01-01T07:33:37;5.93;;;3.28;;
65275;SDS011;51875;49.994;14.052;2023-01-01T07:34:52;6.25;;;3.90;;
65275;SDS011;51875;49.994;14.052;2023-01-01T07:36:08;8.23;;;4.40;;
65275;SDS011;51875;49.994;14.052;2023-01-01T07:37:24;8.05;;;3.78;;
65275;SDS011;51875;49.994;14.052;2023-01-01T07:38:40;10.30;;;4.65;;
65275;SDS011;51875;49.994;14.052;2023-01-01T07:39:55;10.05;;;4.47;;
65275;SDS011;51875;49.994;14.052;2023-01-01T07:41:11;11.27;;;5.07;;
65275;SDS011;51875;49.994;14.052;2023-01-01T07:42:27;13.13;;;5.22;;
65275;SDS011;51875;49.994;14.052;2023-01-01T07:43:42;8.85;;;4.28;;
65275;SDS011;51875;49.994;14.052;2023-01-01T07:44:58;10.93;;;5.25;;
65275;SDS011;51875;49.994;14.052;2023-01-01T07:46:14;12.82;;;6.28;;
65275;SDS011;51875;49.994;14.052;2023-01-01T07:47:32;10.40;;;5.65;;
65275;SDS011;51875;49.994;14.052;2023-01-01T07:48:48;13.07;;;5.88;;
65275;SDS011;51875;49.994;14.052;2023-01-01T07:50:04;12.10;;;5.78;;
65275;SDS011;51875;49.994;14.052;2023-01-01T07:51:20;12.63;;;6.10;;
65275;SDS011;51875;49.994;14.052;2023-01-01T07:52:35;11.63;;;5.85;;
65275;SDS011;51875;49.994;14.052;2023-01-01T07:53:51;13.05;;;5.80;;
65275;SDS011;51875;49.994;14.052;2023-01-01T07:55:07;10.15;;;5.28;;
65275;SDS011;51875;49.994;14.052;2023-01-01T07:56:27;10.75;;;5.38;;
65275;SDS011;51875;49.994;14.052;2023-01-01T07:57:43;10.23;;;5.25;;
65275;SDS011;51875;49.994;14.052;2023-01-01T07:59:01;11.68;;;5.15;;
65275;SDS011;51875;49.994;14.052;2023-01-01T08:00:18;13.45;;;5.32;;
65275;SDS011;51875;49.994;14.052;2023-01-01T08:01:35;13.25;;;5.68;;
65275;SDS011;51875;49.994;14.052;2023-01-01T08:02:51;12.25;;;4.97;;
65275;SDS011;51875;49.994;14.052;2023-01-01T08:04:07;12.00;;;5.57;;
65275;SDS011;51875;49.994;14.052;2023-01-01T08:05:23;10.75;;;4.93;;
65275;SDS011;51875;49.994;14.052;2023-01-01T08:06:38;12.80;;;6.18;;
65275;SDS011;51875;49.994;14.052;2023-01-01T08:07:54;15.38;;;6.30;;
65275;SDS011;51875;49.994;14.052;2023-01-01T08:09:10;14.57;;;5.32;;
65275;SDS011;51875;49.994;14.052;2023-01-01T08:10:25;12.07;;;5.72;;